createdAt,value
2018-03-15T00:33:52.069Z,14.17
2018-03-15T00:36:25.409Z,16.30
2018-03-15T00:38:58.665Z,16.13
2018-03-15T00:41:31.548Z,14.17
2018-03-15T00:44:04.095Z,14.43
2018-03-15T00:46:37.438Z,14.20
2018-03-15T00:49:10.262Z,15.30
2018-03-15T00:51:43.069Z,20.57
2018-03-15T00:54:16.389Z,17.13
2018-03-15T00:56:49.824Z,21.37
2018-03-15T00:59:22.612Z,20.23
2018-03-15T01:01:55.672Z,24.23
2018-03-15T01:04:28.161Z,21.30
2018-03-15T01:07:02.309Z,21.30
2018-03-15T01:09:34.952Z,25.20
2018-03-15T01:12:07.432Z,22.77
2018-03-15T01:14:40.551Z,25.40
2018-03-15T01:17:13.327Z,21.10
2018-03-15T01:19:45.981Z,23.90
2018-03-15T01:22:18.624Z,23.70
2018-03-15T01:24:51.149Z,22.30
2018-03-15T01:27:23.585Z,23.00
2018-03-15T01:29:56.233Z,22.77
2018-03-15T01:32:29.486Z,24.67
2018-03-15T01:35:01.960Z,24.00
2018-03-15T01:37:34.404Z,24.57
2018-03-15T01:40:07.004Z,20.23
2018-03-15T01:42:39.537Z,23.37
2018-03-15T01:45:12.057Z,24.70
2018-03-15T01:47:45.273Z,24.63
2018-03-15T01:50:18.011Z,22.97
2018-03-15T01:52:51.353Z,20.33
2018-03-15T01:55:24.762Z,24.30
2018-03-15T01:57:57.716Z,23.77
2018-03-15T02:00:31.068Z,23.17
2018-03-15T02:03:03.860Z,22.17
2018-03-15T02:05:37.113Z,17.40
2018-03-15T02:08:10.230Z,18.97
2018-03-15T02:10:43.412Z,17.90
2018-03-15T02:13:16.485Z,20.97
2018-03-15T02:15:49.504Z,19.43
2018-03-15T02:18:22.774Z,17.80
2018-03-15T02:20:55.189Z,22.70
2018-03-15T02:23:27.719Z,24.90
2018-03-15T02:26:00.433Z,26.00
2018-03-15T02:28:33.199Z,24.03
2018-03-15T02:31:06.451Z,21.97
2018-03-15T02:33:38.981Z,21.63
2018-03-15T02:36:11.663Z,23.63
2018-03-15T02:38:44.852Z,22.07
2018-03-15T02:41:17.739Z,19.50
2018-03-15T02:43:50.904Z,20.90
2018-03-15T02:46:24.591Z,19.67
2018-03-15T02:48:57.130Z,19.67
2018-03-15T02:51:29.758Z,17.60
2018-03-15T02:54:02.356Z,18.00
2018-03-15T02:56:35.722Z,17.60
2018-03-15T02:59:09.078Z,21.43
2018-03-15T03:01:41.763Z,19.30
2018-03-15T03:04:14.228Z,19.90
2018-03-15T03:06:47.728Z,17.27
2018-03-15T03:09:20.101Z,22.07
2018-03-15T03:11:52.644Z,20.47
2018-03-15T03:14:25.207Z,23.13
2018-03-15T03:16:57.873Z,24.57
2018-03-15T03:19:30.699Z,21.50
2018-03-15T03:22:03.492Z,20.37
2018-03-15T03:24:36.490Z,18.70
2018-03-15T03:27:09.474Z,16.80
2018-03-15T03:29:41.833Z,18.70
2018-03-15T03:32:15.222Z,19.00
2018-03-15T03:34:48.563Z,16.83
2018-03-15T03:37:21.064Z,21.60
2018-03-15T03:39:55.000Z,21.30
2018-03-15T03:42:27.651Z,21.47
2018-03-15T03:45:01.132Z,22.93
2018-03-15T03:47:33.926Z,22.50
2018-03-15T03:50:06.609Z,23.03
2018-03-15T03:52:40.002Z,18.20
2018-03-15T03:55:12.327Z,21.60
2018-03-15T03:57:44.768Z,22.90
2018-03-15T04:00:17.984Z,24.17
2018-03-15T04:02:50.949Z,19.10
2018-03-15T04:05:24.239Z,20.57
2018-03-15T04:07:57.640Z,17.90
2018-03-15T04:10:30.240Z,21.60
2018-03-15T04:13:03.593Z,20.80
2018-03-15T04:15:36.969Z,20.60
2018-03-15T04:18:09.768Z,22.53
2018-03-15T04:20:43.759Z,18.00
2018-03-15T04:23:16.537Z,21.67
2018-03-15T04:25:48.974Z,19.40
2018-03-15T04:28:21.799Z,18.07
2018-03-15T04:30:54.872Z,20.07
2018-03-15T04:33:27.841Z,19.43
2018-03-15T04:36:00.403Z,15.93
2018-03-15T04:38:33.047Z,20.00
2018-03-15T04:41:05.456Z,16.43
2018-03-15T04:43:38.860Z,17.90
2018-03-15T04:46:12.662Z,18.07
2018-03-15T04:48:46.412Z,18.13
2018-03-15T04:51:19.173Z,15.60
2018-03-15T04:53:51.667Z,20.10
2018-03-15T04:56:24.859Z,20.60
2018-03-15T04:58:57.574Z,19.37
2018-03-15T05:01:29.996Z,18.10
2018-03-15T05:04:03.376Z,19.00
2018-03-15T05:06:36.140Z,20.70
2018-03-15T05:09:08.717Z,20.07
2018-03-15T05:11:42.901Z,17.30
2018-03-15T05:14:15.566Z,16.83
2018-03-15T05:16:47.979Z,16.00
2018-03-15T05:19:20.652Z,19.40
2018-03-15T05:21:54.051Z,18.03
2018-03-15T05:24:27.304Z,17.67
2018-03-15T05:27:00.033Z,18.73
2018-03-15T05:29:33.297Z,20.47
2018-03-15T05:32:06.048Z,21.83
2018-03-15T05:34:38.587Z,20.23
2018-03-15T05:37:11.311Z,21.47
2018-03-15T05:39:44.687Z,16.97
2018-03-15T05:42:18.383Z,19.47
2018-03-15T05:44:52.169Z,12.93
2018-03-15T05:47:24.958Z,17.37
2018-03-15T05:49:57.670Z,19.67
2018-03-15T05:52:30.911Z,18.13
2018-03-15T05:55:03.987Z,18.10
2018-03-15T05:57:36.702Z,16.60
2018-03-15T06:00:09.248Z,16.73
2018-03-15T06:02:42.580Z,16.23
2018-03-15T06:05:15.107Z,21.13
2018-03-15T06:07:49.217Z,16.23
2018-03-15T06:10:22.773Z,13.60
2018-03-15T06:12:55.325Z,16.50
2018-03-15T06:15:27.743Z,18.27
2018-03-15T06:18:00.241Z,13.80
2018-03-15T06:20:33.500Z,10.93
2018-03-15T06:23:06.323Z,13.33
2018-03-15T06:25:38.822Z,16.73
2018-03-15T06:28:11.238Z,15.67
2018-03-15T06:30:43.813Z,13.80
2018-03-15T06:33:16.969Z,13.23
2018-03-15T06:35:51.099Z,13.10
2018-03-15T06:38:24.010Z,17.57
2018-03-15T06:40:58.189Z,16.93
2018-03-15T06:43:31.644Z,17.03
2018-03-15T06:46:05.185Z,13.83
2018-03-15T06:48:37.960Z,15.70
2018-03-15T06:51:11.569Z,16.33
2018-03-15T06:53:44.615Z,16.30
2018-03-15T06:56:17.578Z,12.10
2018-03-15T06:58:50.414Z,14.33
2018-03-15T07:01:23.088Z,14.60
2018-03-15T07:03:56.353Z,13.90
2018-03-15T07:06:28.913Z,14.50
2018-03-15T07:09:01.370Z,16.90
2018-03-15T07:11:34.637Z,14.17
2018-03-15T07:14:07.213Z,14.40
2018-03-15T07:16:40.414Z,13.10
2018-03-15T07:19:14.504Z,13.10
2018-03-15T07:21:47.101Z,12.37
2018-03-15T07:24:19.536Z,11.53
2018-03-15T07:26:52.678Z,10.00
2018-03-15T07:29:25.537Z,14.70
2018-03-15T07:31:57.989Z,13.50
2018-03-15T07:34:31.092Z,12.80
2018-03-15T07:37:04.973Z,9.90
2018-03-15T07:39:38.430Z,10.27
2018-03-15T07:42:11.429Z,10.27
2018-03-15T07:44:44.731Z,9.87
2018-03-15T07:47:17.703Z,9.83
2018-03-15T07:49:50.624Z,9.87
2018-03-15T07:52:23.088Z,9.30
2018-03-15T07:54:55.604Z,8.33
2018-03-15T07:57:29.153Z,9.67
2018-03-15T08:00:02.152Z,7.10
2018-03-15T08:02:35.134Z,8.60
2018-03-15T08:05:08.189Z,8.83
2018-03-15T08:07:40.912Z,8.50
2018-03-15T08:10:13.850Z,9.13
2018-03-15T08:12:47.487Z,7.10
2018-03-15T08:15:19.947Z,9.73
2018-03-15T08:17:53.035Z,7.30
2018-03-15T08:20:25.435Z,7.77
2018-03-15T08:22:57.864Z,7.63
2018-03-15T08:25:31.085Z,7.80
2018-03-15T08:28:03.564Z,7.70
2018-03-15T08:30:35.992Z,8.50
2018-03-15T08:33:08.504Z,6.40
2018-03-15T08:35:41.021Z,7.50
2018-03-15T08:38:14.429Z,7.83
2018-03-15T08:40:47.026Z,7.50
2018-03-15T08:43:20.620Z,7.20
2018-03-15T08:45:53.843Z,7.40
2018-03-15T08:48:26.628Z,6.97
2018-03-15T08:50:59.814Z,7.97
2018-03-15T08:53:32.505Z,7.77
2018-03-15T08:56:05.155Z,8.97
2018-03-15T08:58:37.514Z,8.13
2018-03-15T09:01:10.107Z,7.30
2018-03-15T09:03:43.357Z,8.20
2018-03-15T09:06:16.733Z,8.53
2018-03-15T09:08:49.720Z,8.40
2018-03-15T09:11:21.980Z,9.07
2018-03-15T09:13:55.201Z,8.30
2018-03-15T09:16:27.879Z,9.47
2018-03-15T09:19:01.430Z,6.90
2018-03-15T09:21:34.500Z,7.60
2018-03-15T09:24:07.091Z,7.30
2018-03-15T09:26:40.222Z,8.93
2018-03-15T09:29:12.842Z,8.27
2018-03-15T09:31:46.685Z,7.50
2018-03-15T09:34:20.105Z,7.60
2018-03-15T09:36:52.633Z,9.03
2018-03-15T09:39:25.153Z,7.23
2018-03-15T09:41:58.521Z,7.70
2018-03-15T09:44:31.923Z,6.90
2018-03-15T09:47:04.387Z,7.40
2018-03-15T09:49:36.903Z,7.50
2018-03-15T09:52:09.313Z,7.80
2018-03-15T09:54:42.394Z,7.30
2018-03-15T09:57:16.080Z,7.20
2018-03-15T09:59:48.980Z,7.17
2018-03-15T10:02:21.513Z,7.60
2018-03-15T10:04:55.658Z,7.00
2018-03-15T10:07:29.135Z,7.43
2018-03-15T10:10:02.027Z,8.43
2018-03-15T10:12:35.480Z,7.97
2018-03-15T10:15:07.956Z,7.27
2018-03-15T10:17:40.402Z,8.37
2018-03-15T10:20:12.903Z,7.80
2018-03-15T10:22:45.380Z,8.00
2018-03-15T10:25:26.396Z,9.10
2018-03-15T10:27:51.822Z,8.90
2018-03-15T10:30:24.909Z,7.07
2018-03-15T10:33:03.593Z,9.07
2018-03-15T10:35:36.763Z,8.27
2018-03-15T10:38:09.581Z,8.47
2018-03-15T10:40:41.939Z,8.13
2018-03-15T10:43:15.955Z,8.40
2018-03-15T10:45:48.568Z,9.33
2018-03-15T10:48:21.043Z,9.00
2018-03-15T10:50:53.584Z,8.00
2018-03-15T10:53:26.913Z,7.67
2018-03-15T10:56:00.066Z,7.33
2018-03-15T10:58:32.666Z,7.40
2018-03-15T11:01:06.870Z,5.83
2018-03-15T11:03:46.617Z,6.00
2018-03-15T11:06:25.957Z,6.30
2018-03-15T11:08:59.419Z,6.13
2018-03-15T11:11:32.170Z,6.00
2018-03-15T11:14:05.072Z,6.23
2018-03-15T11:16:37.501Z,5.50
2018-03-15T11:19:10.091Z,5.10
2018-03-15T11:21:42.651Z,5.97
2018-03-15T11:24:15.567Z,6.47
2018-03-15T11:26:48.784Z,7.30
2018-03-15T11:29:22.207Z,6.67
2018-03-15T11:31:54.788Z,7.13
2018-03-15T11:34:27.374Z,6.30
2018-03-15T11:37:00.810Z,6.67
2018-03-15T11:39:34.295Z,7.03
2018-03-15T11:42:07.215Z,5.83
2018-03-15T11:44:40.049Z,7.40
2018-03-15T11:47:13.398Z,6.17
2018-03-15T11:49:47.508Z,6.00
2018-03-15T11:52:20.317Z,7.47
2018-03-15T11:54:52.683Z,6.40
2018-03-15T11:57:25.259Z,5.83
2018-03-15T11:59:57.757Z,6.53
2018-03-15T12:02:30.332Z,6.13
2018-03-15T12:05:04.279Z,6.30
2018-03-15T12:07:37.164Z,6.30
2018-03-15T12:10:10.378Z,6.47
2018-03-15T12:12:44.036Z,5.67
2018-03-15T12:15:16.628Z,6.90
2018-03-15T12:17:49.044Z,6.47
2018-03-15T12:20:21.660Z,6.23
2018-03-15T12:22:54.141Z,7.00
2018-03-15T12:25:26.544Z,5.30
2018-03-15T12:27:59.069Z,5.27
2018-03-15T12:30:31.575Z,5.60
2018-03-15T12:33:03.949Z,5.30
2018-03-15T12:35:37.164Z,5.27
2018-03-15T12:38:10.621Z,5.27
2018-03-15T12:40:44.011Z,5.33
2018-03-15T12:43:16.705Z,5.47
2018-03-15T12:45:49.089Z,4.77
2018-03-15T12:48:22.805Z,4.47
2018-03-15T12:50:56.537Z,5.33
2018-03-15T12:53:30.172Z,4.60
2018-03-15T12:56:03.924Z,5.53
2018-03-15T12:58:37.909Z,5.50
2018-03-15T13:01:10.377Z,5.50
2018-03-15T13:03:43.535Z,5.20
2018-03-15T13:06:17.124Z,6.20
2018-03-15T13:08:50.162Z,4.63
2018-03-15T13:11:23.375Z,5.30
2018-03-15T13:13:55.980Z,5.10
2018-03-15T13:16:29.084Z,5.30
2018-03-15T13:19:02.006Z,5.27
2018-03-15T13:21:35.155Z,5.20
2018-03-15T13:24:07.907Z,5.40
2018-03-15T13:26:41.866Z,4.40
2018-03-15T13:29:15.028Z,6.40
2018-03-15T13:31:47.957Z,4.77
2018-03-15T13:34:21.134Z,5.00
2018-03-15T13:36:53.875Z,5.40
2018-03-15T13:39:26.294Z,5.73
2018-03-15T13:41:59.683Z,5.60
2018-03-15T13:44:32.283Z,5.50
2018-03-15T13:47:05.566Z,5.30
2018-03-15T13:49:38.194Z,6.37
2018-03-15T13:52:10.659Z,5.70
2018-03-15T13:54:43.264Z,6.30
2018-03-15T13:57:15.792Z,6.73
2018-03-15T13:59:49.088Z,7.27
2018-03-15T14:02:21.626Z,6.80
2018-03-15T14:04:55.285Z,6.97
2018-03-15T14:07:28.043Z,6.57
2018-03-15T14:10:00.604Z,6.57
2018-03-15T14:15:15.113Z,7.17
2018-03-15T14:17:48.097Z,7.00
2018-03-15T14:20:21.684Z,7.40
2018-03-15T14:22:54.132Z,8.10
2018-03-15T14:25:26.591Z,7.83
2018-03-15T14:27:59.484Z,6.87
2018-03-15T14:30:32.000Z,7.10
2018-03-15T14:33:05.384Z,6.80
2018-03-15T14:35:44.777Z,7.20
2018-03-15T14:38:18.182Z,8.27
2018-03-15T14:40:51.908Z,7.67
2018-03-15T14:43:24.251Z,6.80
2018-03-15T14:45:56.773Z,7.60
2018-03-15T14:48:29.185Z,7.10
2018-03-15T14:51:02.479Z,7.90
2018-03-15T14:53:35.296Z,7.47
2018-03-15T14:56:07.944Z,8.03
2018-03-15T14:58:41.290Z,7.57
2018-03-15T15:01:13.912Z,8.07
2018-03-15T15:03:47.227Z,8.10
2018-03-15T15:06:19.693Z,8.83
2018-03-15T15:08:53.068Z,8.87
2018-03-15T15:11:25.691Z,8.30
2018-03-15T15:13:58.378Z,9.63
2018-03-15T15:16:31.379Z,7.80
2018-03-15T15:19:04.775Z,7.97
2018-03-15T15:21:37.613Z,8.93
2018-03-15T15:24:09.982Z,7.73
2018-03-15T15:26:42.558Z,7.57
2018-03-15T15:29:15.820Z,8.97
2018-03-15T15:31:48.542Z,9.93
2018-03-15T15:34:21.739Z,9.07
2018-03-15T15:36:55.118Z,8.10
2018-03-15T15:39:28.305Z,9.77
2018-03-15T15:42:01.660Z,8.83
2018-03-15T15:44:34.209Z,9.00
2018-03-15T15:47:07.464Z,9.50
2018-03-15T15:49:40.229Z,7.67
2018-03-15T15:52:12.935Z,10.23
2018-03-15T15:54:46.230Z,10.40
2018-03-15T15:57:18.870Z,9.33
2018-03-15T15:59:52.188Z,8.80
2018-03-15T16:02:24.833Z,9.47
2018-03-15T16:04:58.042Z,9.47
2018-03-15T16:07:30.778Z,10.30
2018-03-15T16:10:04.277Z,8.57
2018-03-15T16:12:36.668Z,9.23
2018-03-15T16:15:09.055Z,9.10
2018-03-15T16:17:41.494Z,9.23
2018-03-15T16:20:14.265Z,9.57
2018-03-15T16:22:47.020Z,9.73
2018-03-15T16:25:19.939Z,9.20
2018-03-15T16:27:52.499Z,10.10
2018-03-15T16:30:25.101Z,9.73
2018-03-15T16:32:57.669Z,10.00
2018-03-15T16:35:30.462Z,10.30
2018-03-15T16:38:03.872Z,9.60
2018-03-15T16:40:36.786Z,10.50
2018-03-15T16:43:10.171Z,9.00
2018-03-15T16:45:43.490Z,9.87
2018-03-15T16:48:16.796Z,10.00
2018-03-15T16:50:49.458Z,9.60
2018-03-15T16:53:22.613Z,9.70
2018-03-15T16:55:55.249Z,10.80
2018-03-15T16:58:27.905Z,10.20
2018-03-15T17:01:01.200Z,9.23
2018-03-15T17:03:33.665Z,10.23
2018-03-15T17:06:06.204Z,10.37
2018-03-15T17:08:38.644Z,8.67
2018-03-15T17:11:11.027Z,10.17
2018-03-15T17:13:43.611Z,9.50
2018-03-15T17:16:16.019Z,10.10
2018-03-15T17:18:48.709Z,8.30
2018-03-15T17:21:22.709Z,9.23
2018-03-15T17:23:55.293Z,9.30
2018-03-15T17:26:28.468Z,10.17
2018-03-15T17:29:01.356Z,8.47
2018-03-15T17:31:34.944Z,10.60
2018-03-15T17:34:07.888Z,10.17
2018-03-15T17:36:41.849Z,9.20
2018-03-15T17:39:14.908Z,8.60
2018-03-15T17:41:48.237Z,10.63
2018-03-15T17:44:20.936Z,9.90
2018-03-15T17:46:54.136Z,9.10
2018-03-15T17:49:27.303Z,9.33
2018-03-15T17:52:00.389Z,10.73
2018-03-15T17:54:32.906Z,10.10
2018-03-15T17:57:06.188Z,10.70
2018-03-15T17:59:40.146Z,10.70
2018-03-15T18:02:13.255Z,11.77
2018-03-15T18:04:46.386Z,10.90
2018-03-15T18:07:18.963Z,11.27
2018-03-15T18:09:52.173Z,12.13
2018-03-15T18:12:24.787Z,9.93
2018-03-15T18:14:57.351Z,10.87
2018-03-15T18:17:29.738Z,12.10
2018-03-15T18:20:02.410Z,12.93
2018-03-15T18:22:35.090Z,12.57
2018-03-15T18:25:08.655Z,12.50
2018-03-15T18:27:41.659Z,12.50
2018-03-15T18:30:14.319Z,11.00
2018-03-15T18:32:46.796Z,11.10
2018-03-15T18:35:19.250Z,12.97
2018-03-15T18:37:51.721Z,11.23
2018-03-15T18:40:24.364Z,13.17
2018-03-15T18:42:56.696Z,12.70
2018-03-15T18:45:29.604Z,8.90
2018-03-15T18:48:02.593Z,12.03
2018-03-15T18:50:35.521Z,13.50
2018-03-15T18:53:08.235Z,12.50
2018-03-15T18:55:41.055Z,12.63
2018-03-15T18:58:13.999Z,12.60
2018-03-15T19:00:46.543Z,10.33
2018-03-15T19:03:19.863Z,12.20
2018-03-15T19:05:52.581Z,11.70
2018-03-15T19:08:26.638Z,13.03
2018-03-15T19:11:00.134Z,13.53
2018-03-15T19:13:32.680Z,11.70
2018-03-15T19:16:06.231Z,11.30
2018-03-15T19:18:40.263Z,11.00
2018-03-15T19:21:13.067Z,10.70
2018-03-15T19:23:46.684Z,15.17
2018-03-15T19:26:20.019Z,12.10
2018-03-15T19:28:52.580Z,12.77
2018-03-15T19:31:25.153Z,13.50
2018-03-15T19:33:58.510Z,14.70
2018-03-15T19:36:31.089Z,15.67
2018-03-15T19:39:04.208Z,14.40
2018-03-15T19:41:37.010Z,14.73
2018-03-15T19:44:10.078Z,13.73
2018-03-15T19:46:42.966Z,13.97
2018-03-15T19:49:15.406Z,14.80
2018-03-15T19:51:48.206Z,15.97
2018-03-15T19:54:21.613Z,16.67
2018-03-15T19:56:54.325Z,14.53
2018-03-15T19:59:27.628Z,13.40
2018-03-15T20:02:00.719Z,17.87
2018-03-15T20:04:33.471Z,15.80
2018-03-15T20:07:06.176Z,13.17
2018-03-15T20:09:39.014Z,18.20
2018-03-15T20:12:12.600Z,15.20
2018-03-15T20:14:46.674Z,17.07
2018-03-15T20:17:19.266Z,18.80
2018-03-15T20:19:52.790Z,12.93
2018-03-15T20:22:31.524Z,15.90
2018-03-15T20:25:04.825Z,12.47
2018-03-15T20:27:45.041Z,15.50
2018-03-15T20:30:17.767Z,13.40
2018-03-15T20:32:56.743Z,13.97
2018-03-15T20:35:30.623Z,15.63
2018-03-15T20:38:03.245Z,13.10
2018-03-15T20:40:41.990Z,13.73
2018-03-15T20:43:15.381Z,16.50
2018-03-15T20:45:54.701Z,13.10
2018-03-15T20:48:33.392Z,12.73
2018-03-15T20:51:05.981Z,14.47
2018-03-15T20:53:39.379Z,13.60
2018-03-15T20:56:12.775Z,13.30
2018-03-15T20:58:46.241Z,13.60
2018-03-15T21:01:18.961Z,12.00
2018-03-15T21:03:51.439Z,11.87
2018-03-15T21:06:24.227Z,13.00
2018-03-15T21:08:57.858Z,10.90
2018-03-15T21:11:30.937Z,10.70
2018-03-15T21:14:03.711Z,10.87
2018-03-15T21:16:36.302Z,14.60
2018-03-15T21:19:09.611Z,13.90
2018-03-15T21:21:43.774Z,12.97
2018-03-15T21:24:16.653Z,13.00
2018-03-15T21:26:49.270Z,14.00
2018-03-15T21:29:23.195Z,11.73
2018-03-15T21:31:55.783Z,14.60
2018-03-15T21:34:28.974Z,12.50
2018-03-15T21:37:01.699Z,10.63
2018-03-15T21:39:34.547Z,12.03
2018-03-15T21:42:08.551Z,11.90
2018-03-15T21:44:42.125Z,12.03
2018-03-15T21:47:15.298Z,11.03
2018-03-15T21:49:48.340Z,9.83
2018-03-15T21:52:21.558Z,10.37
2018-03-15T21:54:54.282Z,9.40
2018-03-15T21:57:27.503Z,10.03
2018-03-15T22:00:00.001Z,10.00
2018-03-15T22:02:34.132Z,10.10
2018-03-15T22:05:06.763Z,9.57
2018-03-15T22:07:39.388Z,9.80
2018-03-15T22:10:12.579Z,9.43
2018-03-15T22:12:45.182Z,8.73
2018-03-15T22:15:17.951Z,9.20
2018-03-15T22:17:51.885Z,9.77
2018-03-15T22:20:25.204Z,9.60
2018-03-15T22:22:58.049Z,9.97
2018-03-15T22:25:30.802Z,9.33
2018-03-15T22:28:03.303Z,9.70
2018-03-15T22:30:36.141Z,9.20
2018-03-15T22:33:09.663Z,8.17
2018-03-15T22:35:43.430Z,7.57
2018-03-15T22:38:16.082Z,8.43
2018-03-15T22:40:49.210Z,9.33
2018-03-15T22:43:21.737Z,8.60
2018-03-15T22:45:55.243Z,10.70
2018-03-15T22:48:29.327Z,8.00
2018-03-15T22:51:02.471Z,9.70
2018-03-15T22:53:35.680Z,8.90
2018-03-15T22:56:08.272Z,8.70
2018-03-15T22:58:40.730Z,10.50
2018-03-15T23:01:13.641Z,9.80
2018-03-15T23:03:47.554Z,11.07
2018-03-15T23:06:20.397Z,8.70
2018-03-15T23:08:52.960Z,9.87
2018-03-15T23:11:25.472Z,9.03
2018-03-15T23:13:57.904Z,10.23
2018-03-15T23:16:31.108Z,10.00
2018-03-15T23:19:03.828Z,8.93
2018-03-15T23:21:37.289Z,10.43
2018-03-15T23:24:11.484Z,12.60
2018-03-15T23:26:44.521Z,11.27
2018-03-15T23:29:17.756Z,10.80
2018-03-15T23:31:50.676Z,10.93
2018-03-15T23:34:24.278Z,10.03
2018-03-15T23:36:58.538Z,11.33
2018-03-15T23:39:32.636Z,11.40
2018-03-15T23:42:05.878Z,11.03
2018-03-15T23:44:40.106Z,11.03
2018-03-15T23:47:12.724Z,8.40
2018-03-15T23:49:45.901Z,10.57
2018-03-15T23:52:19.940Z,10.17
2018-03-15T23:54:52.611Z,11.70
2018-03-15T23:57:25.272Z,12.03
2018-03-15T23:59:58.460Z,10.37
